Terra, Utah
Current Conditions -  °F | °C
As of 7:58 AM on Thursday 30 Oct 2014 (Local Time) from KU16 Reporting Station
Clear Clear  
Wind Chill: 32°   Ceiling: Unl
Heat Index: 32°   Visibility: 10mi
Dew Point: 22°   Wind: 0mph
Humidity: 66%   Direction: NA
Pressure: 30.24"   Gusts: NA
Location:  40.2589°N, 113.049°W
Report Text: KU16 301358Z AUTO 00000KT 10SM CLR 00/M06 A3024 RMK AO2 SLP858 T00001056 TSNO $
Loading
Personal Weather Stations






























Interactive Weather Map
Tropical Storm Tracking
New forecast layout! Learn more

10-Day Weather Forecast

Advertisements
Track Severe Weather on mobile